DW0417 Weather Reports


Display with metric or nautical units.
time (UTC)temp
F
wind
direction
speed
MPH
gust
MPH
rain 1hr
in
rain 24hr
in
rain mn
in
humidity
%
barometer
mb
20230206065233 34 97 0.0 1.0 0.00 0.00 0.00 66 1005.6
20230206064234 33 101 0.0 1.0 0.00 0.00 0.00 68 1005.6
20230206063229 31 310 0.0 0.0 0.00 0.00 0.00 73 1005.6
20230206062226 31 135 1.0 4.0 0.00 0.00 0.00 70 1005.6
20230206061227 36 288 0.0 1.0 0.00 0.00 0.00 59 1005.6
20230206060226 34 326 0.0 3.0 0.00 0.00 0.00 65 1005.8
20230206055231 29 231 0.0 5.0 0.00 0.00 0.00 79 1006.0
20230206055227 31 356 1.0 7.0 0.00 0.00 0.00 75 1005.9
20230206053226 29 91 1.0 6.0 0.00 0.00 0.00 80 1005.6
20230206052727 29 97 2.0 6.0 0.00 0.00 0.00 82 1005.9
20230206051227 27 117 0.0 3.0 0.00 0.00 0.00 87 1006.1
20230206050225 26 143 0.0 3.0 0.00 0.00 0.00 87 1006.2
20230206045226 26 250 0.0 0.0 0.00 0.00 0.00 87 1006.3
20230206044227 27 249 0.0 0.0 0.00 0.00 0.00 87 1006.6
20230206043221 26 27 0.0 0.0 0.00 0.00 0.00 86 1006.7
20230206042221 27 27 0.0 0.0 0.00 0.00 0.00 85 1006.8
20230206041222 28 27 0.0 0.0 0.00 0.00 0.00 85 1006.9
20230206040222 28 231 0.0 0.0 0.00 0.00 0.00 84 1006.9
20230206035722 28 174 0.0 1.0 0.00 0.00 0.00 84 1006.9
20230206034222 28 260 0.0 0.0 0.00 0.00 0.00 84 1007.2
20230206033722 29 260 1.0 4.0 0.00 0.00 0.00 83 1007.2
20230206032222 29 321 0.0 4.0 0.00 0.00 0.00 83 1007.3
20230206031219 29 117 0.0 0.0 0.00 0.00 0.00 83 1007.4
20230206030214 29 321 0.0 0.0 0.00 0.00 0.00 82 1007.5
20230206025214 29 264 0.0 0.0 0.00 0.00 0.00 83 1007.6
20230206024213 30 267 0.0 1.0 0.00 0.00 0.00 83 1007.6
20230206023212 30 6 0.0 0.0 0.00 0.00 0.00 81 1007.9
20230206022714 30 6 0.0 0.0 0.00 0.00 0.00 81 1008.1
20230206021212 30 296 0.0 3.0 0.00 0.00 0.00 80 1008.1
20230206020212 31 293 0.0 1.0 0.00 0.00 0.00 81 1008.2
20230206015210 31 250 0.0 2.0 0.00 0.00 0.00 80 1008.2
20230206014713 31 286 0.0 0.0 0.00 0.00 0.00 79 1008.1
20230206013205 32 238 0.0 2.0 0.00 0.00 0.00 78 1008.5
20230206012205 32 208 0.0 0.0 0.00 0.00 0.00 76 1008.1
20230206011204 33 300 0.0 0.0 0.00 0.00 0.00 75 1008.0
20230206010203 33 172 0.0 0.0 0.00 0.00 0.00 74 1008.0
20230206005704 34 217 0.0 2.0 0.00 0.00 0.00 72 1008.1
20230206004203 35 169 1.0 5.0 0.00 0.00 0.00 69 1007.9
20230206003203 37 138 0.0 0.0 0.00 0.00 0.00 67 1007.6
20230206002205 38 82 0.0 0.0 0.00 0.00 0.00 65 1007.4
20230206001204 40 308 0.0 0.0 0.00 0.00 0.00 62 1007.5
20230206000159 42 209 2.0 7.0 0.00 0.00 0.00 58 1007.7
20230205235158 42 113 0.0 3.0 0.00 0.00 0.00 57 1007.5
20230205234157 43 219 1.0 6.0 0.00 0.00 0.00 57 1007.7
20230205233700 44 155 0.0 0.0 0.00 0.00 0.00 54 1007.9
20230205232157 45 101 0.0 0.0 0.00 0.00 0.00 53 1007.9
20230205231158 46 124 0.0 1.0 0.00 0.00 0.00 50 1008.1
20230205230156 46 75 0.0 0.0 0.00 0.00 0.00 49 1008.0
20230205225700 46 17 0.0 7.0 0.00 0.00 0.00 49 1008.2
20230205224158 46 313 0.0 1.0 0.00 0.00 0.00 51 1008.5
20230205223653 47 34 0.0 2.0 0.00 0.00 0.00 49 1008.6
20230205222151 46 40 0.0 6.0 0.00 0.00 0.00 51 1008.8
20230205221151 47 41 0.0 5.0 0.00 0.00 0.00 48 1008.9
20230205220150 47 6 0.0 2.0 0.00 0.00 0.00 48 1009.0
20230205215151 46 82 0.0 2.0 0.00 0.00 0.00 49 1009.0
20230205214152 46 86 0.0 1.0 0.00 0.00 0.00 49 1009.4
20230205213652 46 13 0.0 3.0 0.00 0.00 0.00 46 1009.6
20230205212152 46 4 0.0 5.0 0.00 0.00 0.00 47 1009.7
20230205211654 45 84 0.0 3.0 0.00 0.00 0.00 47 1009.9
20230205210149 45 6 0.0 3.0 0.00 0.00 0.00 49 1010.1
20230205205149 44 81 1.0 5.0 0.00 0.00 0.00 49 1010.2
20230205204150 45 94 1.0 5.0 0.00 0.00 0.00 50 1010.6
20230205203149 45 11 1.0 4.0 0.00 0.00 0.00 52 1010.8
20230205202148 46 347 1.0 6.0 0.00 0.00 0.00 52 1010.9
20230205201149 47 132 0.0 3.0 0.00 0.00 0.00 50 1011.4
20230205200150 46 31 1.0 5.0 0.00 0.00 0.00 49 1011.6
20230205195146 47 18 0.0 4.0 0.00 0.00 0.00 47 1011.8
20230205194648 47 65 0.0 2.0 0.00 0.00 0.00 49 1012.0
20230205193147 46 4 1.0 6.0 0.00 0.00 0.00 49 1012.2
20230205192146 46 49 2.0 8.0 0.00 0.00 0.00 47 1012.7
20230205191147 46 28 0.0 7.0 0.00 0.00 0.00 46 1012.9
20230205190146 46 4 0.0 5.0 0.00 0.00 0.00 43 1013.2
20230205185147 45 347 0.0 2.0 0.00 0.00 0.00 46 1013.7
20230205184147 45 72 0.0 0.0 0.00 0.00 0.00 52 1013.9
20230205183148 43 6 0.0 6.0 0.00 0.00 0.00 49 1014.2
20230205182148 42 47 1.0 6.0 0.00 0.00 0.00 53 1014.4
20230205181147 42 355 0.0 1.0 0.00 0.00 0.00 53 1014.8
20230205180147 42 355 1.0 5.0 0.00 0.00 0.00 53 1015.0
20230205175144 42 7 0.0 1.0 0.00 0.00 0.00 53 1015.1
20230205174143 42 34 0.0 1.0 0.00 0.00 0.00 52 1015.2
20230205173643 41 102 0.0 1.0 0.00 0.00 0.00 53 1015.3
20230205172142 41 110 0.0 0.0 0.00 0.00 0.00 54 1015.5
20230205171143 40 84 0.0 0.0 0.00 0.00 0.00 55 1015.5
20230205170143 39 41 0.0 0.0 0.00 0.00 0.00 57 1015.6
20230205165143 38 126 0.0 0.0 0.00 0.00 0.00 61 1015.7
20230205164142 37 113 0.0 1.0 0.00 0.00 0.00 64 1015.8
20230205163143 37 105 0.0 0.0 0.00 0.00 0.00 63 1015.9
20230205162140 36 289 0.0 0.0 0.00 0.00 0.00 66 1016.2
20230205161139 34 290 0.0 1.0 0.00 0.00 0.00 70 1016.2
20230205160139 33 259 0.0 0.0 0.00 0.00 0.00 71 1016.3
20230205155640 31 296 0.0 1.0 0.00 0.00 0.00 75 1016.5
20230205154133 30 13 0.0 0.0 0.00 0.00 0.00 76 1016.3
20230205153639 29 121 0.0 0.0 0.00 0.00 0.00 77 1016.5
20230205153133 29 125 0.0 0.0 0.00 0.00 0.00 79 1016.5
20230205151132 29 273 0.0 0.0 0.00 0.00 0.00 78 1016.6
20230205150134 28 272 0.0 0.0 0.00 0.00 0.00 77 1016.2
20230205145134 27 272 0.0 0.0 0.00 0.00 0.00 79 1016.3
20230205144133 27 271 0.0 0.0 0.00 0.00 0.00 78 1016.4
20230205143131 28 120 0.0 0.0 0.00 0.00 0.00 76 1016.4
20230205142134 28 350 0.0 0.0 0.00 0.00 0.00 76 1016.3
20230205141132 28 0.0 0.0 0.00 0.00 0.00 76
20230205135637 29 290 0.0 0.0 0.00 0.00 0.00 73 1016.3
20230205134637 29 291 1.0 6.0 0.00 0.00 0.00 73 1016.3
20230205133638 29 309 0.0 6.0 0.00 0.00 0.00 73 1016.3
20230205132636 29 297 0.0 1.0 0.00 0.00 0.00 75 1016.3
20230205131638 28 238 0.0 0.0 0.00 0.00 0.00 76 1016.2
20230205130631 28 257 0.0 1.0 0.00 0.00 0.00 76 1016.3
20230205125630 28 255 0.0 0.0 0.00 0.00 0.00 76 1016.5
20230205124630 28 255 0.0 0.0 0.00 0.00 0.00 77 1016.4
20230205123631 28 254 0.0 0.0 0.00 0.00 0.00 76 1016.6
20230205122631 28 256 0.0 0.0 0.00 0.00 0.00 77 1016.5
20230205121630 28 179 0.0 0.0 0.00 0.00 0.00 76 1016.5
20230205120631 29 129 0.0 0.0 0.00 0.00 0.00 74 1016.6
20230205115630 29 208 0.0 0.0 0.00 0.00 0.00 75 1016.7
20230205114631 28 263 0.0 0.0 0.00 0.00 0.00 76 1016.7
20230205114126 29 255 0.0 1.0 0.00 0.00 0.00 74 1016.6
20230205112624 30 269 0.0 0.0 0.00 0.00 0.00 71 1016.6
20230205112125 30 270 0.0 0.0 0.00 0.00 0.00 72 1016.6
20230205111125 29 123 0.0 0.0 0.00 0.00 0.00 73 1016.7
20230205105625 31 123 0.0 0.0 0.00 0.00 0.00 70 1016.6
20230205104625 30 224 0.0 0.0 0.00 0.00 0.00 71 1016.7
20230205103624 30 204 0.0 0.0 0.00 0.00 0.00 72 1016.7
20230205102626 31 11 0.0 0.0 0.00 0.00 0.00 69 1016.5
20230205102126 31 274 0.0 2.0 0.00 0.00 0.00 69 1016.6
20230205100619 31 279 0.0 0.0 0.00 0.00 0.00 68 1016.6
20230205095618 32 148 0.0 0.0 0.00 0.00 0.00 67 1016.4
20230205095121 34 331 0.0 0.0 0.00 0.00 0.00 64 1016.6
20230205094118 34 331 0.0 2.0 0.00 0.00 0.00 62 1016.9
20230205092619 35 322 0.0 1.0 0.00 0.00 0.00 60 1016.9
20230205091619 36 36 0.0 5.0 0.00 0.00 0.00 58 1016.7
20230205090617 36 15 0.0 3.0 0.00 0.00 0.00 56 1016.9
20230205085619 37 356 0.0 0.0 0.00 0.00 0.00 53 1016.7
20230205085119 37 20 0.0 0.0 0.00 0.00 0.00 52 1016.9
20230205083615 37 359 0.0 3.0 0.00 0.00 0.00 51 1016.7
20230205082615 36 20 0.0 3.0 0.00 0.00 0.00 57 1016.7
20230205081616 35 242 1.0 7.0 0.00 0.00 0.00 56 1016.6
20230205080615 35 158 0.0 0.0 0.00 0.00 0.00 57 1016.4
20230205075617 37 306 0.0 0.0 0.00 0.00 0.00 53 1016.6
20230205074611 37 306 1.0 4.0 0.00 0.00 0.00 52 1016.5
20230205073612 38 353 0.0 0.0 0.00 0.00 0.00 51 1016.6
20230205072613 39 327 0.0 4.0 0.00 0.00 0.00 47 1016.9
20230205071612 39 318 0.0 3.0 0.00 0.00 0.00 47 1016.9
20230205070611 40 0.0 0.0 0.00 0.00 0.00 46